createdAt,value
2022-11-28T00:02:19.047Z,32.50
2022-11-28T00:04:53.096Z,32.50
2022-11-28T00:07:23.282Z,32.50
2022-11-28T00:09:54.079Z,32.60
2022-11-28T00:12:24.199Z,32.50
2022-11-28T00:14:53.782Z,32.60
2022-11-28T00:17:26.387Z,32.60
2022-11-28T00:19:56.599Z,32.50
2022-11-28T00:22:28.690Z,32.50
2022-11-28T00:24:58.376Z,32.50
2022-11-28T00:27:28.026Z,32.50
2022-11-28T00:29:57.674Z,32.50
2022-11-28T00:32:29.366Z,32.50
2022-11-28T00:34:59.771Z,32.50
2022-11-28T00:37:29.907Z,32.40
2022-11-28T00:39:59.972Z,32.50
2022-11-28T00:42:29.949Z,32.40
2022-11-28T00:44:59.876Z,32.50
2022-11-28T00:47:29.469Z,32.40
2022-11-28T00:49:58.961Z,32.50
2022-11-28T00:52:28.454Z,33.20
2022-11-28T00:54:58.098Z,33.00
2022-11-28T00:57:27.489Z,33.10
2022-11-28T00:59:56.934Z,33.20
2022-11-28T01:02:26.478Z,33.30
2022-11-28T01:04:56.054Z,33.30
2022-11-28T01:07:26.184Z,33.30
2022-11-28T01:09:56.735Z,33.30
2022-11-28T01:12:26.839Z,33.40
2022-11-28T01:14:58.783Z,33.40
2022-11-28T01:17:28.875Z,33.40
2022-11-28T01:19:58.447Z,33.40
2022-11-28T01:22:27.992Z,33.50
2022-11-28T01:24:57.402Z,33.60
2022-11-28T01:27:27.305Z,34.00
2022-11-28T01:29:56.972Z,34.30
2022-11-28T01:32:27.273Z,34.40
2022-11-28T01:34:57.640Z,34.50
2022-11-28T01:37:30.558Z,34.10
2022-11-28T01:40:00.142Z,34.10
2022-11-28T01:42:30.129Z,34.10
2022-11-28T01:45:21.889Z,34.40
2022-11-28T01:47:52.216Z,35.30
2022-11-28T01:50:22.468Z,35.30
2022-11-28T01:52:54.119Z,35.30
2022-11-28T01:55:26.271Z,34.30
2022-11-28T01:57:56.063Z,34.60
2022-11-28T02:00:26.050Z,34.90
2022-11-28T02:03:16.594Z,34.60
2022-11-28T02:05:46.023Z,31.70
2022-11-28T02:08:15.923Z,29.00
2022-11-28T02:11:05.630Z,29.40
2022-11-28T02:14:12.576Z,29.00
2022-11-28T02:16:54.740Z,28.20
2022-11-28T02:19:48.723Z,29.80
2022-11-28T02:22:20.980Z,30.90
2022-11-28T02:25:09.844Z,31.10
2022-11-28T02:27:55.606Z,30.80
2022-11-28T02:30:59.324Z,30.00
2022-11-28T02:33:33.129Z,28.80
2022-11-28T02:36:22.565Z,28.20
2022-11-28T02:39:04.799Z,27.90
2022-11-28T02:41:46.325Z,29.40
2022-11-28T02:44:21.269Z,30.00
2022-11-28T02:46:56.047Z,30.70
2022-11-28T02:49:35.577Z,30.80
2022-11-28T02:52:20.019Z,30.30
2022-11-28T02:54:50.480Z,30.80
2022-11-28T02:57:20.036Z,31.20
2022-11-28T02:59:51.463Z,29.80
2022-11-28T03:02:39.327Z,30.30
2022-11-28T03:05:09.626Z,29.90
2022-11-28T03:08:06.718Z,29.90
2022-11-28T03:11:01.016Z,30.50
2022-11-28T03:13:36.671Z,31.00
2022-11-28T03:16:16.091Z,31.10
2022-11-28T03:18:52.105Z,31.30
2022-11-28T03:21:34.799Z,31.80
2022-11-28T03:24:10.525Z,31.90
2022-11-28T03:27:03.866Z,32.00
2022-11-28T03:29:38.292Z,32.40
2022-11-28T03:32:14.373Z,32.50
2022-11-28T03:34:48.522Z,32.40
2022-11-28T03:37:28.110Z,32.40
2022-11-28T03:40:03.018Z,32.70
2022-11-28T03:42:34.862Z,32.80
2022-11-28T03:45:12.492Z,32.90
2022-11-28T03:47:50.203Z,32.60
2022-11-28T03:50:22.576Z,32.90
2022-11-28T03:52:52.583Z,32.90
2022-11-28T03:55:44.317Z,32.90
2022-11-28T03:58:24.503Z,32.90
2022-11-28T04:01:05.032Z,33.00
2022-11-28T04:03:47.456Z,33.00
2022-11-28T04:06:42.937Z,33.10
2022-11-28T04:09:19.055Z,33.10
2022-11-28T04:11:56.771Z,33.20
2022-11-28T04:14:30.621Z,33.30
2022-11-28T04:17:15.092Z,33.40
2022-11-28T04:19:52.407Z,34.50
2022-11-28T04:22:29.401Z,33.60
2022-11-28T04:25:02.001Z,38.20
2022-11-28T04:27:41.200Z,34.60
2022-11-28T04:30:11.663Z,36.10
2022-11-28T04:32:43.960Z,36.10
2022-11-28T04:35:17.959Z,34.50
2022-11-28T04:37:49.774Z,34.60
2022-11-28T04:40:20.022Z,34.70
2022-11-28T04:42:53.812Z,34.80
2022-11-28T04:45:40.801Z,34.60
2022-11-28T04:48:11.362Z,35.10
2022-11-28T04:51:25.417Z,34.80
2022-11-28T04:54:00.498Z,34.70
2022-11-28T04:56:51.457Z,34.00
2022-11-28T04:59:20.837Z,34.80
2022-11-28T05:01:50.803Z,33.80
2022-11-28T05:04:20.845Z,33.40
2022-11-28T05:06:51.237Z,33.40
2022-11-28T05:09:20.750Z,33.50
2022-11-28T05:11:50.598Z,33.50
2022-11-28T05:14:20.572Z,33.50
2022-11-28T05:16:50.795Z,33.50
2022-11-28T05:19:20.970Z,33.60
2022-11-28T05:21:50.740Z,33.60
2022-11-28T05:24:22.265Z,33.70
2022-11-28T05:26:52.492Z,33.70
2022-11-28T05:29:22.144Z,33.70
2022-11-28T05:31:52.080Z,33.70
2022-11-28T05:34:21.693Z,33.80
2022-11-28T05:36:51.216Z,33.90
2022-11-28T05:39:21.191Z,33.80
2022-11-28T05:41:51.260Z,33.90
2022-11-28T05:44:25.462Z,34.00
2022-11-28T05:46:56.750Z,33.90
2022-11-28T05:49:27.049Z,34.00
2022-11-28T05:51:57.077Z,34.00
2022-11-28T05:54:26.645Z,33.90
2022-11-28T05:56:56.018Z,33.90
2022-11-28T05:59:25.477Z,33.90
2022-11-28T06:01:55.184Z,33.90
2022-11-28T06:04:24.709Z,33.80
2022-11-28T06:06:54.374Z,33.90
2022-11-28T06:09:26.053Z,33.90
2022-11-28T06:11:56.279Z,33.90
2022-11-28T06:14:25.798Z,33.80
2022-11-28T06:16:55.220Z,33.80
2022-11-28T06:19:25.186Z,33.80
2022-11-28T06:21:57.148Z,33.90
2022-11-28T06:24:27.055Z,33.80
2022-11-28T06:26:56.609Z,33.80
2022-11-28T06:29:26.065Z,33.80
2022-11-28T06:31:57.345Z,33.80
2022-11-28T06:34:27.646Z,29.20
2022-11-28T06:36:57.112Z,28.00
2022-11-28T06:39:26.591Z,32.50
2022-11-28T06:41:56.913Z,32.00
2022-11-28T06:44:26.691Z,32.60
2022-11-28T06:46:56.677Z,32.10
2022-11-28T06:49:26.244Z,32.50
2022-11-28T06:51:58.674Z,33.10
2022-11-28T06:54:35.649Z,33.50
2022-11-28T06:57:08.526Z,33.20
2022-11-28T06:59:38.614Z,32.90
2022-11-28T07:02:08.795Z,32.90
2022-11-28T07:04:38.484Z,32.90
2022-11-28T07:07:10.685Z,33.30
2022-11-28T07:09:43.937Z,33.30
2022-11-28T07:12:13.677Z,33.20
2022-11-28T07:14:43.654Z,33.30
2022-11-28T07:17:13.375Z,33.30
2022-11-28T07:19:43.666Z,33.40
2022-11-28T07:22:14.124Z,33.50
2022-11-28T07:24:44.101Z,33.50
2022-11-28T07:27:13.967Z,33.80
2022-11-28T07:29:44.588Z,34.00
2022-11-28T07:32:14.406Z,33.70
2022-11-28T07:34:48.899Z,33.80
2022-11-28T07:37:20.189Z,33.90
2022-11-28T07:39:50.270Z,33.70
2022-11-28T07:42:20.562Z,34.10
2022-11-28T07:45:06.128Z,33.70
2022-11-28T07:47:35.692Z,34.00
2022-11-28T07:50:06.135Z,34.10
2022-11-28T07:52:35.702Z,33.70
2022-11-28T07:55:05.488Z,33.90
2022-11-28T07:57:35.076Z,33.90
2022-11-28T08:00:06.274Z,33.80
2022-11-28T08:02:42.154Z,33.40
2022-11-28T08:05:13.273Z,33.70
2022-11-28T08:07:43.361Z,33.90
2022-11-28T08:10:13.179Z,33.90
2022-11-28T08:12:43.132Z,34.50
2022-11-28T08:15:13.414Z,33.80
2022-11-28T08:17:43.441Z,34.00
2022-11-28T08:20:14.032Z,34.00
2022-11-28T08:22:44.122Z,34.10
2022-11-28T08:25:14.157Z,34.00
2022-11-28T08:27:44.214Z,34.20
2022-11-28T08:30:15.145Z,33.80
2022-11-28T08:32:44.721Z,33.90
2022-11-28T08:35:14.562Z,34.30
2022-11-28T08:37:44.864Z,34.40
2022-11-28T08:40:15.029Z,35.20
2022-11-28T08:42:44.482Z,34.60
2022-11-28T08:45:14.470Z,34.50
2022-11-28T08:47:44.654Z,34.70
2022-11-28T08:50:14.489Z,34.50
2022-11-28T08:52:44.178Z,34.50
2022-11-28T08:55:14.131Z,34.40
2022-11-28T08:57:44.151Z,34.50
2022-11-28T09:00:15.031Z,34.50
2022-11-28T09:02:44.657Z,34.30
2022-11-28T09:05:14.701Z,34.30
2022-11-28T09:07:44.671Z,34.70
2022-11-28T09:10:14.139Z,34.50
2022-11-28T09:12:44.136Z,34.40
2022-11-28T09:15:14.370Z,34.80
2022-11-28T09:17:44.068Z,34.60
2022-11-28T09:20:14.970Z,34.80
2022-11-28T09:22:48.470Z,36.50
2022-11-28T09:25:18.133Z,35.70
2022-11-28T09:27:47.866Z,35.50
2022-11-28T09:30:17.967Z,36.30
2022-11-28T09:32:52.863Z,36.50
2022-11-28T09:35:22.912Z,35.60
2022-11-28T09:37:52.567Z,36.30
2022-11-28T09:40:31.660Z,36.10
2022-11-28T09:43:07.700Z,35.60
2022-11-28T09:45:39.009Z,35.40
2022-11-28T09:48:30.351Z,35.30
2022-11-28T09:51:03.239Z,35.30
2022-11-28T09:53:52.355Z,35.20
2022-11-28T09:56:22.030Z,35.40
2022-11-28T09:59:04.048Z,35.00
2022-11-28T10:01:44.203Z,35.10
2022-11-28T10:04:43.676Z,34.90
2022-11-28T10:07:44.783Z,35.10
2022-11-28T10:10:23.904Z,35.20
2022-11-28T10:13:17.979Z,35.00
2022-11-28T10:16:13.739Z,34.70
2022-11-28T10:18:50.797Z,35.30
2022-11-28T10:21:29.521Z,35.10
2022-11-28T10:24:01.258Z,35.20
2022-11-28T10:26:41.072Z,34.80
2022-11-28T10:29:21.500Z,35.40
2022-11-28T10:31:51.052Z,35.20
2022-11-28T10:34:36.910Z,35.00
2022-11-28T10:37:23.270Z,35.00
2022-11-28T10:39:53.274Z,35.10
2022-11-28T10:42:43.415Z,35.40
2022-11-28T10:45:24.427Z,35.60
2022-11-28T10:48:37.208Z,38.50
2022-11-28T10:51:09.960Z,36.40
2022-11-28T10:54:03.739Z,37.70
2022-11-28T10:56:53.036Z,37.70
2022-11-28T10:59:41.227Z,37.70
2022-11-28T11:02:35.744Z,37.10
2022-11-28T11:05:06.578Z,35.90
2022-11-28T11:07:36.875Z,36.90
2022-11-28T11:10:17.157Z,36.50
2022-11-28T11:12:47.386Z,36.70
2022-11-28T11:15:19.531Z,36.70
2022-11-28T11:17:51.570Z,36.70
2022-11-28T11:20:30.311Z,36.80
2022-11-28T11:23:14.984Z,36.70
2022-11-28T11:25:59.385Z,36.40
2022-11-28T11:28:51.074Z,36.70
2022-11-28T11:31:28.322Z,36.30
2022-11-28T11:34:30.669Z,36.40
2022-11-28T11:37:33.915Z,36.40
2022-11-28T11:40:04.486Z,36.40
2022-11-28T11:42:34.716Z,36.70
2022-11-28T11:45:27.313Z,36.40
2022-11-28T11:47:57.623Z,36.40
2022-11-28T11:50:29.574Z,35.90
2022-11-28T11:53:17.458Z,36.10
2022-11-28T11:55:52.626Z,36.20
2022-11-28T11:58:25.236Z,35.80
2022-11-28T12:00:56.697Z,35.70
2022-11-28T12:03:43.986Z,35.80
2022-11-28T12:06:19.356Z,35.40
2022-11-28T12:09:12.799Z,35.50
2022-11-28T12:11:47.117Z,35.80
2022-11-28T12:14:30.218Z,34.90
2022-11-28T12:20:59.303Z,35.40
2022-11-28T12:23:39.013Z,35.30
2022-11-28T12:26:35.667Z,35.20
2022-11-28T12:29:15.780Z,34.80
2022-11-28T12:32:09.901Z,35.10
2022-11-28T12:34:39.780Z,35.00
2022-11-28T12:38:03.023Z,35.00
2022-11-28T12:40:52.212Z,35.20
2022-11-28T12:43:48.274Z,35.20
2022-11-28T12:46:30.433Z,35.00
2022-11-28T12:49:15.454Z,34.80
2022-11-28T12:51:55.546Z,33.20
2022-11-28T12:54:38.007Z,31.80
2022-11-28T12:57:46.115Z,32.20
2022-11-28T13:00:33.846Z,31.10
2022-11-28T13:03:12.750Z,32.50
2022-11-28T13:06:14.802Z,32.70
2022-11-28T13:08:58.870Z,32.50
2022-11-28T13:11:44.432Z,32.90
2022-11-28T13:14:39.938Z,32.90
2022-11-28T13:17:25.388Z,33.40
2022-11-28T13:20:24.471Z,33.90
2022-11-28T13:22:59.762Z,33.50
2022-11-28T13:25:35.147Z,33.60
2022-11-28T13:28:33.982Z,33.50
2022-11-28T13:31:22.620Z,33.10
2022-11-28T13:33:56.115Z,33.50
2022-11-28T13:39:57.704Z,33.50
2022-11-28T13:43:06.422Z,33.20
2022-11-28T13:45:39.770Z,33.20
2022-11-28T13:51:31.067Z,33.20
2022-11-28T13:54:23.741Z,33.40
2022-11-28T13:57:19.056Z,33.60
2022-11-28T14:00:02.661Z,33.50
2022-11-28T14:02:45.985Z,33.80
2022-11-28T14:05:29.508Z,33.40
2022-11-28T14:07:59.789Z,33.60
2022-11-28T14:10:41.553Z,33.70
2022-11-28T14:13:52.888Z,33.70
2022-11-28T14:16:40.628Z,33.10
2022-11-28T14:19:25.095Z,33.30
2022-11-28T14:22:17.105Z,34.50
2022-11-28T14:24:57.731Z,35.00
2022-11-28T14:27:29.270Z,34.80
2022-11-28T14:29:59.429Z,34.80
2022-11-28T14:32:39.179Z,34.70
2022-11-28T14:35:18.235Z,34.00
2022-11-28T14:37:55.738Z,34.20
2022-11-28T14:40:56.310Z,34.50
2022-11-28T14:43:26.392Z,34.20
2022-11-28T14:46:14.361Z,34.20
2022-11-28T14:48:59.970Z,34.50
2022-11-28T14:52:09.925Z,34.40
2022-11-28T14:54:44.023Z,34.50
2022-11-28T14:57:20.794Z,34.40
2022-11-28T14:59:51.957Z,34.80
2022-11-28T15:03:04.295Z,34.60
2022-11-28T15:05:48.911Z,34.40
2022-11-28T15:08:46.208Z,34.50
2022-11-28T15:11:38.378Z,34.90
2022-11-28T15:14:17.100Z,34.50
2022-11-28T15:16:50.395Z,34.40
2022-11-28T15:19:59.281Z,34.80
2022-11-28T15:22:34.806Z,34.60
2022-11-28T15:25:04.909Z,34.90
2022-11-28T15:27:35.522Z,34.90
2022-11-28T15:30:05.465Z,34.70
2022-11-28T15:32:35.741Z,34.60
2022-11-28T15:35:12.278Z,34.40
2022-11-28T15:37:51.196Z,34.40
2022-11-28T15:40:35.226Z,34.40
2022-11-28T15:43:12.520Z,34.30
2022-11-28T15:45:43.638Z,34.00
2022-11-28T15:48:48.066Z,33.70
2022-11-28T15:51:36.411Z,33.80
2022-11-28T15:54:35.951Z,33.60
2022-11-28T15:57:07.196Z,33.50
2022-11-28T15:59:37.094Z,33.60
2022-11-28T16:02:17.828Z,33.40
2022-11-28T16:04:47.729Z,33.20
2022-11-28T16:07:17.532Z,33.40
2022-11-28T16:09:58.030Z,33.10
2022-11-28T16:12:27.897Z,33.10
2022-11-28T16:15:02.350Z,33.20
2022-11-28T16:17:36.199Z,33.00
2022-11-28T16:20:06.982Z,33.10
2022-11-28T16:22:37.430Z,33.10
2022-11-28T16:25:23.470Z,32.80
2022-11-28T16:27:58.501Z,32.70
2022-11-28T16:30:34.208Z,32.80
2022-11-28T16:33:04.538Z,32.40
2022-11-28T16:35:42.164Z,32.30
2022-11-28T16:38:24.211Z,32.80
2022-11-28T16:41:00.309Z,32.80
2022-11-28T16:44:13.342Z,32.60
2022-11-28T16:47:03.644Z,32.50
2022-11-28T16:49:37.371Z,32.30
2022-11-28T16:52:25.424Z,32.50
2022-11-28T16:54:59.151Z,32.70
2022-11-28T16:57:47.606Z,32.50
2022-11-28T17:00:17.705Z,32.70
2022-11-28T17:02:47.704Z,32.60
2022-11-28T17:05:17.384Z,32.70
2022-11-28T17:07:46.975Z,32.80
2022-11-28T17:10:17.011Z,33.10
2022-11-28T17:12:46.589Z,32.50
2022-11-28T17:15:17.832Z,32.70
2022-11-28T17:17:47.788Z,32.70
2022-11-28T17:20:19.025Z,32.60
2022-11-28T17:22:49.211Z,32.60
2022-11-28T17:25:20.286Z,32.50
2022-11-28T17:27:49.851Z,33.20
2022-11-28T17:30:20.284Z,32.50
2022-11-28T17:32:52.992Z,32.50
2022-11-28T17:35:24.878Z,32.50
2022-11-28T17:37:54.356Z,32.40
2022-11-28T17:40:37.357Z,31.90
2022-11-28T17:43:08.604Z,32.10
2022-11-28T17:45:38.738Z,32.20
2022-11-28T17:48:09.292Z,32.30
2022-11-28T17:50:39.040Z,32.20
2022-11-28T17:53:19.062Z,32.30
2022-11-28T17:55:49.772Z,32.20
2022-11-28T17:58:21.540Z,32.10
2022-11-28T18:00:54.967Z,32.10
2022-11-28T18:03:27.971Z,32.20
2022-11-28T18:05:57.599Z,32.20
2022-11-28T18:08:27.272Z,32.40
2022-11-28T18:11:06.718Z,32.40
2022-11-28T18:13:38.299Z,32.30
2022-11-28T18:16:08.449Z,32.40
2022-11-28T18:18:38.262Z,32.30
2022-11-28T18:21:09.628Z,32.20
2022-11-28T18:23:43.818Z,32.20
2022-11-28T18:26:18.029Z,32.30
2022-11-28T18:28:48.491Z,32.10
2022-11-28T18:31:27.911Z,32.10
2022-11-28T18:34:01.791Z,32.20
2022-11-28T18:36:36.106Z,32.10
2022-11-28T18:39:07.915Z,32.10
2022-11-28T18:41:43.594Z,32.00
2022-11-28T18:44:13.245Z,32.00
2022-11-28T18:46:43.280Z,31.90
2022-11-28T18:49:15.832Z,31.30
2022-11-28T18:51:45.440Z,31.70
2022-11-28T18:54:20.634Z,32.70
2022-11-28T18:56:54.020Z,32.10
2022-11-28T18:59:24.530Z,32.20
2022-11-28T19:01:54.928Z,32.10
2022-11-28T19:04:25.001Z,31.70
2022-11-28T19:06:57.745Z,31.90
2022-11-28T19:09:27.341Z,32.00
2022-11-28T19:11:56.827Z,32.00
2022-11-28T19:14:26.309Z,32.10
2022-11-28T19:16:57.981Z,32.10
2022-11-28T19:19:28.291Z,31.90
2022-11-28T19:21:58.722Z,31.90
2022-11-28T19:24:28.809Z,32.00
2022-11-28T19:26:58.379Z,32.00
2022-11-28T19:29:28.355Z,31.90
2022-11-28T19:31:58.015Z,31.90
2022-11-28T19:34:29.684Z,32.00
2022-11-28T19:36:59.760Z,31.80
2022-11-28T19:39:29.743Z,31.90
2022-11-28T19:42:00.692Z,31.90
2022-11-28T19:44:31.349Z,31.80
2022-11-28T19:47:02.082Z,31.80
2022-11-28T19:49:31.583Z,31.80
2022-11-28T19:52:01.441Z,31.80
2022-11-28T19:54:31.502Z,31.50
2022-11-28T19:57:01.954Z,31.20
2022-11-28T19:59:32.496Z,31.10
2022-11-28T20:02:05.203Z,31.10
2022-11-28T20:04:35.905Z,31.80
2022-11-28T20:07:06.463Z,31.80
2022-11-28T20:09:36.110Z,31.90
2022-11-28T20:12:05.949Z,31.80
2022-11-28T20:14:37.555Z,31.60
2022-11-28T20:17:07.079Z,31.60
2022-11-28T20:19:36.626Z,31.60
2022-11-28T20:22:06.131Z,32.40
2022-11-28T20:24:36.423Z,31.90
2022-11-28T20:27:05.947Z,31.80
2022-11-28T20:29:36.266Z,31.70
2022-11-28T20:32:06.616Z,31.70
2022-11-28T20:34:36.176Z,31.90
2022-11-28T20:37:06.595Z,31.70
2022-11-28T20:39:36.243Z,31.40
2022-11-28T20:42:06.372Z,31.70
2022-11-28T20:44:35.965Z,31.60
2022-11-28T20:47:05.557Z,31.50
2022-11-28T20:49:35.542Z,31.50
2022-11-28T20:52:09.082Z,31.60
2022-11-28T20:54:40.341Z,31.50
2022-11-28T20:57:25.251Z,32.00
2022-11-28T20:59:57.460Z,31.50
2022-11-28T21:02:27.064Z,31.30
2022-11-28T21:04:57.172Z,31.00
2022-11-28T21:07:27.742Z,31.40
2022-11-28T21:10:01.054Z,31.50
2022-11-28T21:12:31.012Z,31.80
2022-11-28T21:15:00.644Z,31.80
2022-11-28T21:17:30.254Z,31.70
2022-11-28T21:20:00.212Z,31.40
2022-11-28T21:22:30.083Z,31.50
2022-11-28T21:24:59.594Z,31.60
2022-11-28T21:27:29.598Z,31.50
2022-11-28T21:29:59.218Z,31.60
2022-11-28T21:32:28.662Z,31.50
2022-11-28T21:35:03.911Z,31.50
2022-11-28T21:37:34.639Z,31.40
2022-11-28T21:40:04.713Z,31.60
2022-11-28T21:42:34.251Z,31.60
2022-11-28T21:45:04.461Z,31.40
2022-11-28T21:47:34.034Z,31.60
2022-11-28T21:50:03.479Z,31.30
2022-11-28T21:52:33.251Z,31.30
2022-11-28T21:55:03.205Z,31.50
2022-11-28T21:57:33.312Z,31.40
2022-11-28T22:00:03.469Z,31.30
2022-11-28T22:02:33.592Z,31.40
2022-11-28T22:05:03.625Z,31.20
2022-11-28T22:07:37.676Z,31.10
2022-11-28T22:10:07.780Z,31.40
2022-11-28T22:12:37.818Z,31.40
2022-11-28T22:15:08.175Z,31.40
2022-11-28T22:17:38.327Z,31.30
2022-11-28T22:20:08.827Z,31.40
2022-11-28T22:22:39.145Z,31.20
2022-11-28T22:25:09.600Z,31.30
2022-11-28T22:27:40.261Z,31.40
2022-11-28T22:30:10.841Z,31.10
2022-11-28T22:32:40.770Z,31.10
2022-11-28T22:35:11.070Z,31.00
2022-11-28T22:37:41.399Z,31.00
2022-11-28T22:40:11.901Z,31.20
2022-11-28T22:42:41.907Z,31.20
2022-11-28T22:45:11.649Z,31.40
2022-11-28T22:47:41.943Z,31.50
2022-11-28T22:50:12.309Z,31.10
2022-11-28T22:52:41.921Z,31.10
2022-11-28T22:55:12.024Z,31.30
2022-11-28T22:57:41.717Z,31.50
2022-11-28T23:00:12.389Z,31.20
2022-11-28T23:02:42.348Z,31.10
2022-11-28T23:05:16.748Z,31.20
2022-11-28T23:07:46.226Z,31.70
2022-11-28T23:10:16.221Z,31.20
2022-11-28T23:12:46.352Z,31.30
2022-11-28T23:15:16.875Z,31.20
2022-11-28T23:17:46.450Z,30.80
2022-11-28T23:20:17.095Z,31.10
2022-11-28T23:22:47.145Z,31.10
2022-11-28T23:25:16.690Z,31.20
2022-11-28T23:27:46.275Z,31.10
2022-11-28T23:30:15.812Z,31.10
2022-11-28T23:32:45.366Z,31.20
2022-11-28T23:35:15.282Z,31.40
2022-11-28T23:37:45.975Z,31.10
2022-11-28T23:40:15.676Z,31.10
2022-11-28T23:42:47.499Z,31.20
2022-11-28T23:45:17.494Z,31.10
2022-11-28T23:47:47.078Z,31.00
2022-11-28T23:50:16.621Z,31.10
2022-11-28T23:52:46.496Z,31.10
2022-11-28T23:55:16.040Z,31.30
2022-11-28T23:57:45.961Z,31.00
